Terminal Aerodrome Forecast
Issued by NWS Blacksburg, VA

Current Version | Previous Version | Text Only | Print | Product List | Glossary Off
Versions: 1 2 3 4 5 6 7 8 9 10 11 12 13 14 15 16 17

000
FTUS41 KRNK 240551
TAFBLF
TAF
KBLF 240551Z 2406/2506 26010KT P6SM SCT010 OVC045 WS020/25045KT
     FM240700 24010KT P6SM OVC008
     FM241400 28009KT P6SM OVC035
     FM241700 28013G23KT P6SM BKN045
     FM242000 28010G20KT P6SM SCT045
     FM250300 28004KT P6SM SCT250=

USA.gov is the U.S. government's official web portal to all federal, state and local government web resources and services.